sensor_id;sensor_type;location;lat;lon;timestamp;temperature;humidity
64685;DHT22;51109;47.414;18.954;2024-03-06T00:00:58;7.70;99.90
64685;DHT22;51109;47.414;18.954;2024-03-06T00:03:24;7.60;99.90
64685;DHT22;51109;47.414;18.954;2024-03-06T00:05:50;7.70;99.90
64685;DHT22;51109;47.414;18.954;2024-03-06T00:08:15;7.70;99.90
64685;DHT22;51109;47.414;18.954;2024-03-06T00:10:41;7.60;99.90
64685;DHT22;51109;47.414;18.954;2024-03-06T00:13:08;7.70;99.90
64685;DHT22;51109;47.414;18.954;2024-03-06T00:15:34;7.60;99.90
64685;DHT22;51109;47.414;18.954;2024-03-06T00:18:00;7.50;99.90
64685;DHT22;51109;47.414;18.954;2024-03-06T00:20:26;7.50;99.90
64685;DHT22;51109;47.414;18.954;2024-03-06T00:22:52;7.50;99.90
64685;DHT22;51109;47.414;18.954;2024-03-06T00:25:18;7.50;99.90
64685;DHT22;51109;47.414;18.954;2024-03-06T00:27:44;7.50;99.90
64685;DHT22;51109;47.414;18.954;2024-03-06T00:30:10;7.50;99.90
64685;DHT22;51109;47.414;18.954;2024-03-06T00:32:36;7.40;99.90
64685;DHT22;51109;47.414;18.954;2024-03-06T00:35:02;7.40;99.90
64685;DHT22;51109;47.414;18.954;2024-03-06T00:37:29;7.40;99.90
64685;DHT22;51109;47.414;18.954;2024-03-06T00:39:55;7.40;99.90
64685;DHT22;51109;47.414;18.954;2024-03-06T00:42:21;7.40;99.90
64685;DHT22;51109;47.414;18.954;2024-03-06T00:44:47;7.40;99.90
64685;DHT22;51109;47.414;18.954;2024-03-06T00:47:13;7.30;99.90
64685;DHT22;51109;47.414;18.954;2024-03-06T00:49:39;7.40;99.90
64685;DHT22;51109;47.414;18.954;2024-03-06T00:52:07;7.50;99.90
64685;DHT22;51109;47.414;18.954;2024-03-06T00:54:35;7.40;99.90
64685;DHT22;51109;47.414;18.954;2024-03-06T00:57:01;7.40;99.90
64685;DHT22;51109;47.414;18.954;2024-03-06T00:59:27;7.40;99.90
64685;DHT22;51109;47.414;18.954;2024-03-06T01:01:53;7.30;99.90
64685;DHT22;51109;47.414;18.954;2024-03-06T01:04:22;7.40;99.90
64685;DHT22;51109;47.414;18.954;2024-03-06T01:06:48;7.30;99.90
64685;DHT22;51109;47.414;18.954;2024-03-06T01:09:14;7.20;99.90
64685;DHT22;51109;47.414;18.954;2024-03-06T01:11:40;7.20;99.90
64685;DHT22;51109;47.414;18.954;2024-03-06T01:14:06;7.10;99.90
64685;DHT22;51109;47.414;18.954;2024-03-06T01:16:31;7.00;99.90
64685;DHT22;51109;47.414;18.954;2024-03-06T01:18:57;7.00;99.90
64685;DHT22;51109;47.414;18.954;2024-03-06T01:21:23;7.10;99.90
64685;DHT22;51109;47.414;18.954;2024-03-06T01:23:49;6.90;99.90
64685;DHT22;51109;47.414;18.954;2024-03-06T01:26:15;6.80;99.90
64685;DHT22;51109;47.414;18.954;2024-03-06T01:28:40;6.80;99.90
64685;DHT22;51109;47.414;18.954;2024-03-06T01:31:06;6.80;99.90
64685;DHT22;51109;47.414;18.954;2024-03-06T01:33:32;6.70;99.90
64685;DHT22;51109;47.414;18.954;2024-03-06T01:35:58;6.60;99.90
64685;DHT22;51109;47.414;18.954;2024-03-06T01:38:24;6.60;99.90
64685;DHT22;51109;47.414;18.954;2024-03-06T01:40:49;6.60;99.90
64685;DHT22;51109;47.414;18.954;2024-03-06T01:43:23;6.80;99.90
64685;DHT22;51109;47.414;18.954;2024-03-06T01:45:50;6.80;99.90
64685;DHT22;51109;47.414;18.954;2024-03-06T01:48:17;6.90;99.90
64685;DHT22;51109;47.414;18.954;2024-03-06T01:50:45;6.90;99.90
64685;DHT22;51109;47.414;18.954;2024-03-06T01:53:13;6.90;99.90
64685;DHT22;51109;47.414;18.954;2024-03-06T01:55:39;6.90;99.90
64685;DHT22;51109;47.414;18.954;2024-03-06T01:58:06;6.80;99.90
64685;DHT22;51109;47.414;18.954;2024-03-06T02:00:33;6.80;99.90
64685;DHT22;51109;47.414;18.954;2024-03-06T02:03:00;6.90;99.90
64685;DHT22;51109;47.414;18.954;2024-03-06T02:05:28;6.80;99.90
64685;DHT22;51109;47.414;18.954;2024-03-06T02:07:54;6.80;99.90
64685;DHT22;51109;47.414;18.954;2024-03-06T02:10:19;8.00;99.90
64685;DHT22;51109;47.414;18.954;2024-03-06T02:12:46;6.80;99.90
64685;DHT22;51109;47.414;18.954;2024-03-06T02:15:13;6.90;99.90
64685;DHT22;51109;47.414;18.954;2024-03-06T02:17:40;6.90;99.90
64685;DHT22;51109;47.414;18.954;2024-03-06T02:20:07;6.80;99.90
64685;DHT22;51109;47.414;18.954;2024-03-06T02:22:48;6.80;99.90
64685;DHT22;51109;47.414;18.954;2024-03-06T02:25:14;6.80;99.90
64685;DHT22;51109;47.414;18.954;2024-03-06T02:27:40;8.80;99.90
64685;DHT22;51109;47.414;18.954;2024-03-06T02:32:41;9.20;99.90
64685;DHT22;51109;47.414;18.954;2024-03-06T02:35:09;6.60;99.90
64685;DHT22;51109;47.414;18.954;2024-03-06T02:37:35;6.50;99.90
64685;DHT22;51109;47.414;18.954;2024-03-06T02:40:01;6.40;99.90
64685;DHT22;51109;47.414;18.954;2024-03-06T02:42:28;6.50;99.90
64685;DHT22;51109;47.414;18.954;2024-03-06T02:44:54;6.50;99.90
64685;DHT22;51109;47.414;18.954;2024-03-06T02:47:20;6.50;99.90
64685;DHT22;51109;47.414;18.954;2024-03-06T02:49:45;6.40;99.90
64685;DHT22;51109;47.414;18.954;2024-03-06T02:52:11;6.40;99.90
64685;DHT22;51109;47.414;18.954;2024-03-06T02:54:37;6.20;99.90
64685;DHT22;51109;47.414;18.954;2024-03-06T02:57:03;6.10;99.90
64685;DHT22;51109;47.414;18.954;2024-03-06T02:59:28;6.10;99.90
64685;DHT22;51109;47.414;18.954;2024-03-06T03:01:54;6.10;99.90
64685;DHT22;51109;47.414;18.954;2024-03-06T03:04:20;6.00;99.90
64685;DHT22;51109;47.414;18.954;2024-03-06T03:06:46;5.90;99.90
64685;DHT22;51109;47.414;18.954;2024-03-06T03:09:11;5.90;99.90
64685;DHT22;51109;47.414;18.954;2024-03-06T03:11:37;5.80;99.90
64685;DHT22;51109;47.414;18.954;2024-03-06T03:14:03;5.70;99.90
64685;DHT22;51109;47.414;18.954;2024-03-06T03:16:29;5.50;99.90
64685;DHT22;51109;47.414;18.954;2024-03-06T03:18:55;5.60;99.90
64685;DHT22;51109;47.414;18.954;2024-03-06T03:21:22;5.50;99.90
64685;DHT22;51109;47.414;18.954;2024-03-06T03:23:48;5.50;99.90
64685;DHT22;51109;47.414;18.954;2024-03-06T03:26:15;5.40;99.90
64685;DHT22;51109;47.414;18.954;2024-03-06T03:28:41;5.50;99.90
64685;DHT22;51109;47.414;18.954;2024-03-06T03:31:08;5.60;99.90
64685;DHT22;51109;47.414;18.954;2024-03-06T03:33:40;5.60;99.90
64685;DHT22;51109;47.414;18.954;2024-03-06T03:36:07;5.70;99.90
64685;DHT22;51109;47.414;18.954;2024-03-06T03:38:34;5.70;99.90
64685;DHT22;51109;47.414;18.954;2024-03-06T03:41:10;5.70;99.90
64685;DHT22;51109;47.414;18.954;2024-03-06T03:43:37;5.70;99.90
64685;DHT22;51109;47.414;18.954;2024-03-06T03:46:04;5.70;99.90
64685;DHT22;51109;47.414;18.954;2024-03-06T03:48:31;5.70;99.90
64685;DHT22;51109;47.414;18.954;2024-03-06T03:50:56;5.70;99.90
64685;DHT22;51109;47.414;18.954;2024-03-06T03:53:22;5.80;99.90
64685;DHT22;51109;47.414;18.954;2024-03-06T03:55:48;5.70;99.90
64685;DHT22;51109;47.414;18.954;2024-03-06T03:58:14;5.70;99.90
64685;DHT22;51109;47.414;18.954;2024-03-06T04:00:40;5.70;99.90
64685;DHT22;51109;47.414;18.954;2024-03-06T04:03:05;5.80;99.90
64685;DHT22;51109;47.414;18.954;2024-03-06T04:05:33;5.80;99.90
64685;DHT22;51109;47.414;18.954;2024-03-06T04:07:58;5.80;99.90
64685;DHT22;51109;47.414;18.954;2024-03-06T04:10:24;5.80;99.90
64685;DHT22;51109;47.414;18.954;2024-03-06T04:12:50;5.80;99.90
64685;DHT22;51109;47.414;18.954;2024-03-06T04:15:16;5.70;99.90
64685;DHT22;51109;47.414;18.954;2024-03-06T04:17:41;5.70;99.90
64685;DHT22;51109;47.414;18.954;2024-03-06T04:20:07;5.70;99.90
64685;DHT22;51109;47.414;18.954;2024-03-06T04:22:38;5.80;99.90
64685;DHT22;51109;47.414;18.954;2024-03-06T04:25:04;5.70;99.90
64685;DHT22;51109;47.414;18.954;2024-03-06T04:27:31;5.80;99.90
64685;DHT22;51109;47.414;18.954;2024-03-06T04:29:57;5.80;99.90
64685;DHT22;51109;47.414;18.954;2024-03-06T04:32:23;5.80;99.90
64685;DHT22;51109;47.414;18.954;2024-03-06T04:34:49;5.80;99.90
64685;DHT22;51109;47.414;18.954;2024-03-06T04:37:14;5.70;99.90
64685;DHT22;51109;47.414;18.954;2024-03-06T04:39:40;5.60;99.90
64685;DHT22;51109;47.414;18.954;2024-03-06T04:42:06;5.60;99.90
64685;DHT22;51109;47.414;18.954;2024-03-06T04:44:36;5.50;99.90
64685;DHT22;51109;47.414;18.954;2024-03-06T04:47:02;5.60;99.90
64685;DHT22;51109;47.414;18.954;2024-03-06T04:49:28;5.50;99.90
64685;DHT22;51109;47.414;18.954;2024-03-06T04:51:54;5.40;99.90
64685;DHT22;51109;47.414;18.954;2024-03-06T04:54:19;5.50;99.90
64685;DHT22;51109;47.414;18.954;2024-03-06T04:56:45;5.50;99.90
64685;DHT22;51109;47.414;18.954;2024-03-06T04:59:11;5.50;99.90
64685;DHT22;51109;47.414;18.954;2024-03-06T05:01:37;5.60;99.90
64685;DHT22;51109;47.414;18.954;2024-03-06T05:04:02;5.70;99.90
64685;DHT22;51109;47.414;18.954;2024-03-06T05:06:29;5.70;99.90
64685;DHT22;51109;47.414;18.954;2024-03-06T05:08:55;5.70;99.90
64685;DHT22;51109;47.414;18.954;2024-03-06T05:11:21;5.70;99.90
64685;DHT22;51109;47.414;18.954;2024-03-06T05:13:46;5.70;99.90
64685;DHT22;51109;47.414;18.954;2024-03-06T05:16:12;5.70;99.90
64685;DHT22;51109;47.414;18.954;2024-03-06T05:18:38;5.70;99.90
64685;DHT22;51109;47.414;18.954;2024-03-06T05:21:04;5.70;99.90
64685;DHT22;51109;47.414;18.954;2024-03-06T05:23:30;5.70;99.90
64685;DHT22;51109;47.414;18.954;2024-03-06T05:25:56;5.70;99.90
64685;DHT22;51109;47.414;18.954;2024-03-06T05:28:21;5.80;99.90
64685;DHT22;51109;47.414;18.954;2024-03-06T05:30:47;5.70;99.90
64685;DHT22;51109;47.414;18.954;2024-03-06T05:33:13;5.70;99.90
64685;DHT22;51109;47.414;18.954;2024-03-06T05:35:39;5.80;99.90
64685;DHT22;51109;47.414;18.954;2024-03-06T05:38:04;5.90;99.90
64685;DHT22;51109;47.414;18.954;2024-03-06T05:40:32;5.90;99.90
64685;DHT22;51109;47.414;18.954;2024-03-06T05:43:02;6.00;99.90
64685;DHT22;51109;47.414;18.954;2024-03-06T05:45:29;6.00;99.90
64685;DHT22;51109;47.414;18.954;2024-03-06T05:47:55;6.00;99.90
64685;DHT22;51109;47.414;18.954;2024-03-06T05:50:20;6.00;99.90
64685;DHT22;51109;47.414;18.954;2024-03-06T05:52:46;6.00;99.90
64685;DHT22;51109;47.414;18.954;2024-03-06T05:55:12;6.10;99.90
64685;DHT22;51109;47.414;18.954;2024-03-06T05:57:37;6.10;99.90
64685;DHT22;51109;47.414;18.954;2024-03-06T06:00:04;6.20;99.90
64685;DHT22;51109;47.414;18.954;2024-03-06T06:02:36;6.20;99.90
64685;DHT22;51109;47.414;18.954;2024-03-06T06:05:02;6.30;99.90
64685;DHT22;51109;47.414;18.954;2024-03-06T06:07:28;6.50;99.90
64685;DHT22;51109;47.414;18.954;2024-03-06T06:09:54;6.60;99.90
64685;DHT22;51109;47.414;18.954;2024-03-06T06:12:20;6.60;99.90
64685;DHT22;51109;47.414;18.954;2024-03-06T06:14:46;6.70;99.90
64685;DHT22;51109;47.414;18.954;2024-03-06T06:17:11;6.80;99.90
64685;DHT22;51109;47.414;18.954;2024-03-06T06:19:42;6.80;99.90
64685;DHT22;51109;47.414;18.954;2024-03-06T06:22:09;6.90;99.90
64685;DHT22;51109;47.414;18.954;2024-03-06T06:24:37;7.00;99.90
64685;DHT22;51109;47.414;18.954;2024-03-06T06:27:04;7.10;99.90
64685;DHT22;51109;47.414;18.954;2024-03-06T06:29:30;7.20;99.90
64685;DHT22;51109;47.414;18.954;2024-03-06T06:31:56;7.20;99.90
64685;DHT22;51109;47.414;18.954;2024-03-06T06:34:23;7.20;99.90
64685;DHT22;51109;47.414;18.954;2024-03-06T06:36:50;7.30;99.90
64685;DHT22;51109;47.414;18.954;2024-03-06T06:39:18;7.30;99.90
64685;DHT22;51109;47.414;18.954;2024-03-06T06:41:44;7.40;99.90
64685;DHT22;51109;47.414;18.954;2024-03-06T06:44:10;7.50;99.90
64685;DHT22;51109;47.414;18.954;2024-03-06T06:46:35;7.60;99.90
64685;DHT22;51109;47.414;18.954;2024-03-06T06:49:01;7.60;99.90
64685;DHT22;51109;47.414;18.954;2024-03-06T06:51:27;7.70;99.90
64685;DHT22;51109;47.414;18.954;2024-03-06T06:53:53;7.70;99.90
64685;DHT22;51109;47.414;18.954;2024-03-06T06:56:20;7.90;99.90
64685;DHT22;51109;47.414;18.954;2024-03-06T06:58:49;8.00;99.90
64685;DHT22;51109;47.414;18.954;2024-03-06T07:01:15;8.10;99.90
64685;DHT22;51109;47.414;18.954;2024-03-06T07:03:45;8.30;99.90
64685;DHT22;51109;47.414;18.954;2024-03-06T07:06:11;8.40;99.90
64685;DHT22;51109;47.414;18.954;2024-03-06T07:08:37;8.50;99.90
64685;DHT22;51109;47.414;18.954;2024-03-06T07:11:03;8.70;99.90
64685;DHT22;51109;47.414;18.954;2024-03-06T07:13:29;8.80;99.90
64685;DHT22;51109;47.414;18.954;2024-03-06T07:15:54;8.80;99.90
64685;DHT22;51109;47.414;18.954;2024-03-06T07:18:20;8.80;99.90
64685;DHT22;51109;47.414;18.954;2024-03-06T07:20:46;8.80;99.90
64685;DHT22;51109;47.414;18.954;2024-03-06T07:23:13;8.70;99.90
64685;DHT22;51109;47.414;18.954;2024-03-06T07:25:39;8.70;99.90
64685;DHT22;51109;47.414;18.954;2024-03-06T07:28:05;8.60;99.90
64685;DHT22;51109;47.414;18.954;2024-03-06T07:30:31;8.60;99.90
64685;DHT22;51109;47.414;18.954;2024-03-06T07:32:57;8.70;99.90
64685;DHT22;51109;47.414;18.954;2024-03-06T07:35:23;8.80;99.90
64685;DHT22;51109;47.414;18.954;2024-03-06T07:37:49;8.80;99.90
64685;DHT22;51109;47.414;18.954;2024-03-06T07:40:14;8.80;99.90
64685;DHT22;51109;47.414;18.954;2024-03-06T07:42:41;8.90;99.90
64685;DHT22;51109;47.414;18.954;2024-03-06T07:45:07;9.00;99.90
64685;DHT22;51109;47.414;18.954;2024-03-06T07:47:34;9.10;99.90
64685;DHT22;51109;47.414;18.954;2024-03-06T07:50:00;9.20;99.90
64685;DHT22;51109;47.414;18.954;2024-03-06T07:52:26;9.40;99.90
64685;DHT22;51109;47.414;18.954;2024-03-06T07:54:51;9.40;99.90
64685;DHT22;51109;47.414;18.954;2024-03-06T07:57:17;9.50;99.90
64685;DHT22;51109;47.414;18.954;2024-03-06T07:59:43;10.30;99.90
64685;DHT22;51109;47.414;18.954;2024-03-06T08:02:09;9.60;99.90
64685;DHT22;51109;47.414;18.954;2024-03-06T08:04:35;9.70;99.90
64685;DHT22;51109;47.414;18.954;2024-03-06T08:07:01;9.80;99.90
64685;DHT22;51109;47.414;18.954;2024-03-06T08:09:27;9.90;99.90
64685;DHT22;51109;47.414;18.954;2024-03-06T08:11:54;10.00;99.90
64685;DHT22;51109;47.414;18.954;2024-03-06T08:14:20;10.10;99.90
64685;DHT22;51109;47.414;18.954;2024-03-06T08:16:46;10.20;99.90
64685;DHT22;51109;47.414;18.954;2024-03-06T08:19:12;10.20;99.90
64685;DHT22;51109;47.414;18.954;2024-03-06T08:21:38;10.40;99.90
64685;DHT22;51109;47.414;18.954;2024-03-06T08:24:04;10.40;99.90
64685;DHT22;51109;47.414;18.954;2024-03-06T08:26:30;10.40;99.90
64685;DHT22;51109;47.414;18.954;2024-03-06T08:28:56;10.40;99.90
64685;DHT22;51109;47.414;18.954;2024-03-06T08:31:21;10.40;99.90
64685;DHT22;51109;47.414;18.954;2024-03-06T08:33:47;10.50;99.90
64685;DHT22;51109;47.414;18.954;2024-03-06T08:36:13;10.50;99.90
64685;DHT22;51109;47.414;18.954;2024-03-06T08:38:39;10.50;99.90
64685;DHT22;51109;47.414;18.954;2024-03-06T08:41:06;10.50;99.90
64685;DHT22;51109;47.414;18.954;2024-03-06T08:43:32;10.50;99.90
64685;DHT22;51109;47.414;18.954;2024-03-06T08:45:58;10.60;99.90
64685;DHT22;51109;47.414;18.954;2024-03-06T08:48:23;10.70;99.90
64685;DHT22;51109;47.414;18.954;2024-03-06T08:50:49;10.90;99.90
64685;DHT22;51109;47.414;18.954;2024-03-06T08:53:16;11.00;99.90
64685;DHT22;51109;47.414;18.954;2024-03-06T08:55:42;11.30;99.90
64685;DHT22;51109;47.414;18.954;2024-03-06T08:58:08;11.30;99.90
64685;DHT22;51109;47.414;18.954;2024-03-06T09:00:34;11.40;99.90
64685;DHT22;51109;47.414;18.954;2024-03-06T09:03:00;11.40;99.90
64685;DHT22;51109;47.414;18.954;2024-03-06T09:05:26;11.60;99.90
64685;DHT22;51109;47.414;18.954;2024-03-06T09:07:52;11.80;99.90
64685;DHT22;51109;47.414;18.954;2024-03-06T09:10:18;11.80;99.90
64685;DHT22;51109;47.414;18.954;2024-03-06T09:12:44;11.80;99.90
64685;DHT22;51109;47.414;18.954;2024-03-06T09:15:11;11.80;99.90
64685;DHT22;51109;47.414;18.954;2024-03-06T09:17:38;11.80;99.90
64685;DHT22;51109;47.414;18.954;2024-03-06T09:20:05;11.90;99.90
64685;DHT22;51109;47.414;18.954;2024-03-06T09:22:38;12.20;99.90
64685;DHT22;51109;47.414;18.954;2024-03-06T09:25:07;12.20;99.90
64685;DHT22;51109;47.414;18.954;2024-03-06T09:27:34;12.10;99.90
64685;DHT22;51109;47.414;18.954;2024-03-06T09:30:00;12.20;99.90
64685;DHT22;51109;47.414;18.954;2024-03-06T09:32:26;12.40;99.90
64685;DHT22;51109;47.414;18.954;2024-03-06T09:34:52;12.60;99.90
64685;DHT22;51109;47.414;18.954;2024-03-06T09:37:19;12.70;99.90
64685;DHT22;51109;47.414;18.954;2024-03-06T09:39:44;12.80;99.90
64685;DHT22;51109;47.414;18.954;2024-03-06T09:42:14;13.10;99.90
64685;DHT22;51109;47.414;18.954;2024-03-06T09:44:41;13.30;99.90
64685;DHT22;51109;47.414;18.954;2024-03-06T09:47:07;13.30;99.90
64685;DHT22;51109;47.414;18.954;2024-03-06T09:49:34;13.20;99.90
64685;DHT22;51109;47.414;18.954;2024-03-06T09:52:02;13.10;99.90
64685;DHT22;51109;47.414;18.954;2024-03-06T09:54:29;12.90;99.90
64685;DHT22;51109;47.414;18.954;2024-03-06T09:56:56;12.90;99.90
64685;DHT22;51109;47.414;18.954;2024-03-06T09:59:24;13.10;99.90
64685;DHT22;51109;47.414;18.954;2024-03-06T10:01:53;13.30;99.90
64685;DHT22;51109;47.414;18.954;2024-03-06T10:04:21;13.50;99.90
64685;DHT22;51109;47.414;18.954;2024-03-06T10:06:47;13.60;99.90
64685;DHT22;51109;47.414;18.954;2024-03-06T10:09:16;13.80;99.90
64685;DHT22;51109;47.414;18.954;2024-03-06T10:11:42;13.90;99.90
64685;DHT22;51109;47.414;18.954;2024-03-06T10:14:08;13.70;99.90
64685;DHT22;51109;47.414;18.954;2024-03-06T10:16:36;13.60;99.90
64685;DHT22;51109;47.414;18.954;2024-03-06T10:19:18;13.50;99.90
64685;DHT22;51109;47.414;18.954;2024-03-06T10:21:47;13.70;99.90
64685;DHT22;51109;47.414;18.954;2024-03-06T10:24:23;13.70;99.90
64685;DHT22;51109;47.414;18.954;2024-03-06T10:26:50;13.90;99.90
64685;DHT22;51109;47.414;18.954;2024-03-06T10:29:18;13.60;99.90
64685;DHT22;51109;47.414;18.954;2024-03-06T10:31:48;13.50;99.90
64685;DHT22;51109;47.414;18.954;2024-03-06T10:34:15;13.60;99.90
64685;DHT22;51109;47.414;18.954;2024-03-06T10:36:42;13.60;99.90
64685;DHT22;51109;47.414;18.954;2024-03-06T10:39:11;13.60;99.90
64685;DHT22;51109;47.414;18.954;2024-03-06T10:41:40;13.70;99.90
64685;DHT22;51109;47.414;18.954;2024-03-06T10:44:12;13.60;99.90
64685;DHT22;51109;47.414;18.954;2024-03-06T10:46:44;13.40;99.90
64685;DHT22;51109;47.414;18.954;2024-03-06T10:49:13;13.10;99.90
64685;DHT22;51109;47.414;18.954;2024-03-06T10:51:44;13.00;99.90
64685;DHT22;51109;47.414;18.954;2024-03-06T10:54:13;12.90;99.90
64685;DHT22;51109;47.414;18.954;2024-03-06T10:56:40;12.80;99.90
64685;DHT22;51109;47.414;18.954;2024-03-06T10:59:11;12.80;99.90
64685;DHT22;51109;47.414;18.954;2024-03-06T11:01:40;12.90;99.90
64685;DHT22;51109;47.414;18.954;2024-03-06T11:04:06;13.00;99.90
64685;DHT22;51109;47.414;18.954;2024-03-06T11:06:33;13.00;99.90
64685;DHT22;51109;47.414;18.954;2024-03-06T11:09:01;13.00;99.90
64685;DHT22;51109;47.414;18.954;2024-03-06T11:11:28;13.10;99.90
64685;DHT22;51109;47.414;18.954;2024-03-06T11:14:01;13.20;99.90
64685;DHT22;51109;47.414;18.954;2024-03-06T11:16:30;13.50;99.90
64685;DHT22;51109;47.414;18.954;2024-03-06T11:19:08;13.80;99.90
64685;DHT22;51109;47.414;18.954;2024-03-06T11:21:35;13.80;99.90
64685;DHT22;51109;47.414;18.954;2024-03-06T11:24:23;13.70;99.90
64685;DHT22;51109;47.414;18.954;2024-03-06T11:26:57;13.80;99.90
64685;DHT22;51109;47.414;18.954;2024-03-06T11:29:24;13.90;99.90
64685;DHT22;51109;47.414;18.954;2024-03-06T11:32:05;14.00;99.90
64685;DHT22;51109;47.414;18.954;2024-03-06T11:34:36;14.00;99.90
64685;DHT22;51109;47.414;18.954;2024-03-06T11:37:06;13.90;99.90
64685;DHT22;51109;47.414;18.954;2024-03-06T11:39:38;13.90;99.90
64685;DHT22;51109;47.414;18.954;2024-03-06T11:42:05;13.80;99.90
64685;DHT22;51109;47.414;18.954;2024-03-06T11:44:34;14.00;99.90
64685;DHT22;51109;47.414;18.954;2024-03-06T11:47:06;14.20;99.90
64685;DHT22;51109;47.414;18.954;2024-03-06T11:49:35;14.30;99.90
64685;DHT22;51109;47.414;18.954;2024-03-06T11:52:06;14.30;99.90
64685;DHT22;51109;47.414;18.954;2024-03-06T11:54:36;14.60;99.90
64685;DHT22;51109;47.414;18.954;2024-03-06T11:57:03;14.70;99.90
64685;DHT22;51109;47.414;18.954;2024-03-06T11:59:31;14.30;99.90
64685;DHT22;51109;47.414;18.954;2024-03-06T12:01:59;14.40;99.90
64685;DHT22;51109;47.414;18.954;2024-03-06T12:04:30;14.50;99.90
64685;DHT22;51109;47.414;18.954;2024-03-06T12:06:59;14.80;99.90
64685;DHT22;51109;47.414;18.954;2024-03-06T12:09:26;15.10;99.90
64685;DHT22;51109;47.414;18.954;2024-03-06T12:11:52;15.10;99.90
64685;DHT22;51109;47.414;18.954;2024-03-06T12:14:19;14.80;99.90
64685;DHT22;51109;47.414;18.954;2024-03-06T12:16:59;14.60;99.90
64685;DHT22;51109;47.414;18.954;2024-03-06T12:19:31;14.70;99.90
64685;DHT22;51109;47.414;18.954;2024-03-06T12:21:59;14.50;99.90
64685;DHT22;51109;47.414;18.954;2024-03-06T12:24:25;14.30;99.90
64685;DHT22;51109;47.414;18.954;2024-03-06T12:26:59;14.30;99.90
64685;DHT22;51109;47.414;18.954;2024-03-06T12:29:29;14.30;99.90
64685;DHT22;51109;47.414;18.954;2024-03-06T12:31:56;14.30;99.90
64685;DHT22;51109;47.414;18.954;2024-03-06T12:34:22;14.40;99.90
64685;DHT22;51109;47.414;18.954;2024-03-06T12:36:48;14.30;99.90
64685;DHT22;51109;47.414;18.954;2024-03-06T12:39:18;14.20;99.90
64685;DHT22;51109;47.414;18.954;2024-03-06T12:41:47;14.40;99.90
64685;DHT22;51109;47.414;18.954;2024-03-06T12:44:13;14.70;99.90
64685;DHT22;51109;47.414;18.954;2024-03-06T12:46:41;14.80;99.90
64685;DHT22;51109;47.414;18.954;2024-03-06T12:49:06;15.00;99.90
64685;DHT22;51109;47.414;18.954;2024-03-06T12:51:32;15.00;99.90
64685;DHT22;51109;47.414;18.954;2024-03-06T12:54:00;15.30;99.90
64685;DHT22;51109;47.414;18.954;2024-03-06T12:56:26;15.40;99.90
64685;DHT22;51109;47.414;18.954;2024-03-06T12:58:52;15.50;99.90
64685;DHT22;51109;47.414;18.954;2024-03-06T13:01:18;15.80;99.90
64685;DHT22;51109;47.414;18.954;2024-03-06T13:03:44;15.70;99.90
64685;DHT22;51109;47.414;18.954;2024-03-06T13:06:10;15.70;99.90
64685;DHT22;51109;47.414;18.954;2024-03-06T13:08:36;15.60;99.90
64685;DHT22;51109;47.414;18.954;2024-03-06T13:11:02;15.60;99.90
64685;DHT22;51109;47.414;18.954;2024-03-06T13:13:29;15.80;99.90
64685;DHT22;51109;47.414;18.954;2024-03-06T13:15:56;15.90;99.90
64685;DHT22;51109;47.414;18.954;2024-03-06T13:18:22;15.50;99.90
64685;DHT22;51109;47.414;18.954;2024-03-06T13:20:48;15.10;99.90
64685;DHT22;51109;47.414;18.954;2024-03-06T13:23:14;14.80;99.90
64685;DHT22;51109;47.414;18.954;2024-03-06T13:25:40;14.90;99.90
64685;DHT22;51109;47.414;18.954;2024-03-06T13:28:06;14.90;99.90
64685;DHT22;51109;47.414;18.954;2024-03-06T13:30:32;14.80;99.90
64685;DHT22;51109;47.414;18.954;2024-03-06T13:32:58;14.80;99.90
64685;DHT22;51109;47.414;18.954;2024-03-06T13:35:24;14.80;99.90
64685;DHT22;51109;47.414;18.954;2024-03-06T13:37:50;14.80;99.90
64685;DHT22;51109;47.414;18.954;2024-03-06T13:40:16;14.90;99.90
64685;DHT22;51109;47.414;18.954;2024-03-06T13:42:43;15.00;99.90
64685;DHT22;51109;47.414;18.954;2024-03-06T13:45:09;15.10;99.90
64685;DHT22;51109;47.414;18.954;2024-03-06T13:47:41;15.10;99.90
64685;DHT22;51109;47.414;18.954;2024-03-06T13:50:13;14.90;99.90
64685;DHT22;51109;47.414;18.954;2024-03-06T13:52:40;14.70;99.90
64685;DHT22;51109;47.414;18.954;2024-03-06T13:55:06;14.60;99.90
64685;DHT22;51109;47.414;18.954;2024-03-06T13:57:34;14.50;99.90
64685;DHT22;51109;47.414;18.954;2024-03-06T14:00:07;14.40;99.90
64685;DHT22;51109;47.414;18.954;2024-03-06T14:02:46;14.50;99.90
64685;DHT22;51109;47.414;18.954;2024-03-06T14:05:13;14.50;99.90
64685;DHT22;51109;47.414;18.954;2024-03-06T14:07:40;14.60;99.90
64685;DHT22;51109;47.414;18.954;2024-03-06T14:10:06;14.60;99.90
64685;DHT22;51109;47.414;18.954;2024-03-06T14:12:34;14.70;99.90
64685;DHT22;51109;47.414;18.954;2024-03-06T14:15:01;14.70;99.90
64685;DHT22;51109;47.414;18.954;2024-03-06T14:17:27;14.70;99.90
64685;DHT22;51109;47.414;18.954;2024-03-06T14:19:53;14.70;99.90
64685;DHT22;51109;47.414;18.954;2024-03-06T14:22:19;14.80;99.90
64685;DHT22;51109;47.414;18.954;2024-03-06T14:24:45;14.90;99.90
64685;DHT22;51109;47.414;18.954;2024-03-06T14:27:11;15.10;99.90
64685;DHT22;51109;47.414;18.954;2024-03-06T14:29:37;15.10;99.90
64685;DHT22;51109;47.414;18.954;2024-03-06T14:32:03;14.80;99.90
64685;DHT22;51109;47.414;18.954;2024-03-06T14:34:29;14.80;99.90
64685;DHT22;51109;47.414;18.954;2024-03-06T14:36:55;14.90;99.90
64685;DHT22;51109;47.414;18.954;2024-03-06T14:39:21;15.00;99.90
64685;DHT22;51109;47.414;18.954;2024-03-06T14:41:48;15.00;99.90
64685;DHT22;51109;47.414;18.954;2024-03-06T14:44:14;14.90;99.90
64685;DHT22;51109;47.414;18.954;2024-03-06T14:46:41;14.80;99.90
64685;DHT22;51109;47.414;18.954;2024-03-06T14:49:08;14.70;99.90
64685;DHT22;51109;47.414;18.954;2024-03-06T14:51:33;14.60;99.90
64685;DHT22;51109;47.414;18.954;2024-03-06T14:53:59;14.40;99.90
64685;DHT22;51109;47.414;18.954;2024-03-06T14:56:25;14.20;99.90
64685;DHT22;51109;47.414;18.954;2024-03-06T14:58:51;14.00;99.90
64685;DHT22;51109;47.414;18.954;2024-03-06T15:01:18;14.00;99.90
64685;DHT22;51109;47.414;18.954;2024-03-06T15:03:44;14.00;99.90
64685;DHT22;51109;47.414;18.954;2024-03-06T15:06:11;13.90;99.90
64685;DHT22;51109;47.414;18.954;2024-03-06T15:08:37;13.80;99.90
64685;DHT22;51109;47.414;18.954;2024-03-06T15:11:03;13.90;99.90
64685;DHT22;51109;47.414;18.954;2024-03-06T15:13:29;13.80;99.90
64685;DHT22;51109;47.414;18.954;2024-03-06T15:15:55;13.60;99.90
64685;DHT22;51109;47.414;18.954;2024-03-06T15:18:21;13.30;99.90
64685;DHT22;51109;47.414;18.954;2024-03-06T15:20:47;13.10;99.90
64685;DHT22;51109;47.414;18.954;2024-03-06T15:23:13;13.00;99.90
64685;DHT22;51109;47.414;18.954;2024-03-06T15:25:41;12.90;99.90